Time;durP1;ratioP1;P1;durP2;ratioP2;P2;SDS_P1;SDS_P2;PMS_P1;PMS_P2;Temp;Humidity;BMP_temperature;BMP_pressure;BME280_temperature;BME280_humidity;BME280_pressure;Samples;Min_cycle;Max_cycle;Signal;HPM_P1;HPM_P2
2022/08/22 00:00:12;;;;;;;10.32;2.70;;;17.10;99.90;;;;;;4994215;28;20050;-83
2022/08/22 00:03:18;;;;;;;6.68;2.55;;;17.20;99.90;;;;;;4991299;28;20054;-84
2022/08/22 00:06:36;;;;;;;7.97;2.38;;;17.20;99.90;;;;;;4992562;28;20109;-83
2022/08/22 00:09:43;;;;;;;15.57;3.95;;;17.20;99.90;;;;;;4992765;28;20042;-84
2022/08/22 00:12:43;;;;;;;17.70;4.25;;;17.20;99.90;;;;;;4992711;28;20058;-82
2022/08/22 00:15:38;;;;;;;12.60;3.65;;;17.20;99.90;;;;;;4992200;28;20077;-82
2022/08/22 00:18:36;;;;;;;9.80;3.72;;;17.10;99.90;;;;;;4995771;28;20051;-84
2022/08/22 00:21:48;;;;;;;9.02;3.42;;;17.20;99.90;;;;;;4993636;28;20077;-83
2022/08/22 00:24:48;;;;;;;13.25;4.88;;;17.10;99.90;;;;;;4994709;28;20150;-81
2022/08/22 00:28:00;;;;;;;8.93;3.60;;;17.10;99.90;;;;;;4980046;28;20050;-81
2022/08/22 00:30:49;;;;;;;13.65;3.60;;;17.10;99.90;;;;;;4996245;28;20057;-81
2022/08/22 00:33:47;;;;;;;9.77;3.25;;;17.10;99.90;;;;;;4980738;28;20602;-82
2022/08/22 00:36:50;;;;;;;13.20;3.60;;;17.10;99.90;;;;;;4998738;28;20059;-81
2022/08/22 00:39:51;;;;;;;9.30;3.55;;;17.10;99.90;;;;;;4992742;28;20060;-81
2022/08/22 00:43:33;;;;;;;7.85;3.00;;;17.10;99.90;;;;;;4991219;28;20201;-81
2022/08/22 00:46:51;;;;;;;8.15;2.70;;;17.10;99.90;;;;;;4992945;28;20060;-81
2022/08/22 00:50:22;;;;;;;7.25;2.75;;;17.10;99.90;;;;;;4990573;28;20621;-83
2022/08/22 00:53:20;;;;;;;9.60;3.40;;;17.10;99.90;;;;;;4984988;28;20050;-83
2022/08/22 00:56:34;;;;;;;11.48;2.92;;;17.10;99.90;;;;;;4992769;28;20046;-80
2022/08/22 01:00:08;;;;;;;11.70;3.28;;;17.10;99.90;;;;;;4992347;28;20495;-81
2022/08/22 01:03:01;;;;;;;8.02;2.83;;;17.10;99.90;;;;;;4993653;28;20055;-80
2022/08/22 01:06:14;;;;;;;7.32;3.30;;;17.10;99.90;;;;;;4975710;28;20491;-81
2022/08/22 01:09:13;;;;;;;8.05;2.85;;;17.10;99.90;;;;;;4992234;28;20168;-81
2022/08/22 01:12:10;;;;;;;11.52;3.35;;;17.00;99.90;;;;;;4993153;28;20426;-80
2022/08/22 01:15:02;;;;;;;8.70;2.83;;;17.00;99.90;;;;;;4989990;28;20054;-80
2022/08/22 01:18:10;;;;;;;10.13;2.83;;;17.00;99.90;;;;;;4990908;28;20062;-79
2022/08/22 01:21:18;;;;;;;8.55;2.95;;;17.00;99.90;;;;;;4991889;28;20509;-82
2022/08/22 01:24:28;;;;;;;11.45;2.40;;;16.90;99.90;;;;;;4974448;28;20054;-81
2022/08/22 01:27:53;;;;;;;13.52;3.50;;;16.90;99.90;;;;;;4991842;28;20085;-80
2022/08/22 01:30:49;;;;;;;6.75;2.50;;;16.90;99.90;;;;;;4976595;28;20058;-80
2022/08/22 01:34:06;;;;;;;7.15;3.10;;;16.80;99.90;;;;;;4991309;28;20678;-81
2022/08/22 01:37:08;;;;;;;6.97;2.75;;;16.80;99.90;;;;;;4990967;28;20518;-82
2022/08/22 01:40:21;;;;;;;6.75;3.00;;;16.80;99.90;;;;;;4991028;28;20104;-80
2022/08/22 01:43:39;;;;;;;12.50;3.50;;;16.70;99.90;;;;;;4991393;28;20398;-81
2022/08/22 01:46:39;;;;;;;10.07;4.10;;;16.60;99.90;;;;;;4991570;28;20062;-80
2022/08/22 01:49:34;;;;;;;10.43;4.00;;;16.60;99.90;;;;;;4990818;28;20507;-81
2022/08/22 01:53:03;;;;;;;8.55;3.38;;;16.60;99.90;;;;;;4991350;28;20054;-83
2022/08/22 01:56:12;;;;;;;10.40;2.92;;;16.50;99.90;;;;;;4947499;28;20093;-80
2022/08/22 01:59:05;;;;;;;7.35;2.83;;;16.50;99.90;;;;;;4991092;28;20057;-80
2022/08/22 02:02:02;;;;;;;10.63;3.53;;;16.40;99.90;;;;;;4991012;28;20157;-81
2022/08/22 02:05:26;;;;;;;8.75;2.85;;;16.40;99.90;;;;;;4973695;28;20058;-82
2022/08/22 02:08:29;;;;;;;7.60;2.83;;;16.30;99.90;;;;;;4973893;28;20077;-80
2022/08/22 02:11:43;;;;;;;9.30;3.20;;;16.20;99.90;;;;;;4990926;28;20050;-80
2022/08/22 02:14:51;;;;;;;8.90;3.53;;;16.20;99.90;;;;;;4989369;28;20058;-80
2022/08/22 02:18:05;;;;;;;8.00;2.58;;;16.20;99.90;;;;;;4991748;28;20070;-80
2022/08/22 02:21:07;;;;;;;5.47;2.58;;;16.10;99.90;;;;;;4991156;28;20057;-80
2022/08/22 02:24:13;;;;;;;8.27;2.90;;;16.10;99.90;;;;;;4989161;28;20058;-80
2022/08/22 02:27:04;;;;;;;;;;;16.10;99.90;;;;;;4991562;28;20089;-79
2022/08/22 02:30:00;;;;;;;6.22;2.00;;;16.00;99.90;;;;;;4977740;28;20296;-80
2022/08/22 02:32:59;;;;;;;8.63;3.10;;;16.00;99.90;;;;;;4996191;28;20057;-79
2022/08/22 02:35:58;;;;;;;3.40;1.30;;;16.00;99.90;;;;;;4996850;28;20097;-79
2022/08/22 02:39:03;;;;;;;7.80;1.50;;;15.90;99.90;;;;;;4992236;28;20149;-80
2022/08/22 02:41:58;;;;;;;5.90;1.40;;;15.90;99.90;;;;;;4994178;28;20173;-80
2022/08/22 02:44:50;;;;;;;4.25;1.42;;;15.80;99.90;;;;;;4994476;28;20058;-80
2022/08/22 02:48:10;;;;;;;3.00;1.00;;;15.80;99.90;;;;;;4994377;28;20050;-80
2022/08/22 02:51:02;;;;;;;5.80;1.63;;;15.80;99.90;;;;;;4993877;28;20430;-80
2022/08/22 02:54:09;;;;;;;4.97;1.95;;;15.80;99.90;;;;;;4994851;28;20047;-79
2022/08/22 02:57:13;;;;;;;4.82;1.80;;;15.70;99.90;;;;;;4994327;28;20082;-80
2022/08/22 03:00:21;;;;;;;4.75;1.60;;;15.70;99.90;;;;;;4993889;28;20059;-84
2022/08/22 03:03:27;;;;;;;3.92;1.90;;;15.70;99.90;;;;;;4994323;28;20482;-81
2022/08/22 03:06:49;;;;;;;3.78;1.30;;;15.60;99.90;;;;;;4993308;28;20115;-80
2022/08/22 03:09:46;;;;;;;4.03;1.65;;;15.60;99.90;;;;;;4961564;28;20498;-81
2022/08/22 03:13:00;;;;;;;3.13;1.10;;;15.60;99.90;;;;;;4993710;28;20054;-82
2022/08/22 03:15:53;;;;;;;2.15;0.93;;;15.60;99.90;;;;;;4993401;28;20061;-81
2022/08/22 03:18:40;;;;;;;7.20;1.40;;;15.50;99.90;;;;;;4978379;28;20518;-81
2022/08/22 03:21:43;;;;;;;3.72;1.25;;;15.50;99.90;;;;;;4993676;28;20074;-82
2022/08/22 03:24:43;;;;;;;3.50;1.55;;;15.50;99.90;;;;;;4993315;28;20112;-81
2022/08/22 03:27:43;;;;;;;3.65;1.55;;;15.50;99.90;;;;;;4993328;28;20061;-81
2022/08/22 03:30:29;;;;;;;5.32;1.40;;;15.50;99.90;;;;;;4995799;28;20073;-81
2022/08/22 03:33:24;;;;;;;5.95;2.10;;;15.50;99.90;;;;;;4994115;28;20743;-81
2022/08/22 03:36:25;;;;;;;3.13;1.45;;;15.50;99.90;;;;;;4977226;28;20410;-81
2022/08/22 03:39:34;;;;;;;6.72;2.22;;;15.40;99.90;;;;;;4953454;28;20051;-82
2022/08/22 03:42:48;;;;;;;6.55;2.65;;;15.40;99.90;;;;;;4953730;28;20503;-81
2022/08/22 03:45:37;;;;;;;6.68;1.90;;;15.40;99.90;;;;;;4953638;29;20117;-84
2022/08/22 03:48:42;;;;;;;4.20;1.77;;;15.40;99.90;;;;;;4954133;29;20047;-83
2022/08/22 03:51:56;;;;;;;4.80;2.27;;;15.30;99.90;;;;;;4953759;28;20059;-80
2022/08/22 03:54:51;;;;;;;4.65;1.77;;;15.30;99.90;;;;;;4954328;28;20323;-83
2022/08/22 03:58:07;;;;;;;4.07;2.10;;;15.30;99.90;;;;;;4955046;29;20115;-81
2022/08/22 04:01:10;;;;;;;3.95;1.88;;;15.30;99.90;;;;;;4953067;29;20392;-79
2022/08/22 04:04:42;;;;;;;5.18;2.10;;;15.30;99.90;;;;;;4969277;28;20089;-79
2022/08/22 04:07:54;;;;;;;3.03;1.20;;;15.20;99.90;;;;;;4953001;29;20460;-79
2022/08/22 04:11:06;;;;;;;6.18;1.65;;;15.20;99.90;;;;;;4939605;29;20055;-80
2022/08/22 04:13:52;;;;;;;2.97;1.38;;;15.20;99.90;;;;;;4953995;28;20106;-80
2022/08/22 04:16:57;;;;;;;4.07;1.80;;;15.20;99.90;;;;;;4953263;29;20059;-81
2022/08/22 04:19:43;;;;;;;6.00;1.93;;;15.10;99.90;;;;;;4953920;28;20070;-84
2022/08/22 04:23:05;;;;;;;3.80;1.67;;;15.10;99.90;;;;;;4952826;29;20287;-78
2022/08/22 04:26:12;;;;;;;3.40;1.48;;;15.10;99.90;;;;;;4953891;28;20050;-78
2022/08/22 04:29:06;;;;;;;2.63;1.17;;;15.10;99.90;;;;;;4954171;28;20055;-78
2022/08/22 04:32:33;;;;;;;4.25;1.10;;;15.10;99.90;;;;;;4953789;28;20083;-79
2022/08/22 04:35:19;;;;;;;;;;;15.10;99.90;;;;;;4954608;28;20130;-81
2022/08/22 04:38:19;;;;;;;3.42;1.70;;;15.00;99.90;;;;;;4972154;28;19977;-77
2022/08/22 04:41:31;;;;;;;3.70;1.63;;;15.00;99.90;;;;;;4974824;28;20050;-79
2022/08/22 04:44:39;;;;;;;6.07;1.60;;;15.00;99.90;;;;;;4991295;28;20533;-80
2022/08/22 04:47:41;;;;;;;8.77;3.30;;;15.00;99.90;;;;;;4995732;28;20158;-84
2022/08/22 04:50:38;;;;;;;5.15;2.55;;;15.00;99.90;;;;;;4992557;28;20104;-80
2022/08/22 04:53:50;;;;;;;5.80;2.30;;;15.00;99.90;;;;;;4974225;28;20506;-80
2022/08/22 04:57:14;;;;;;;6.60;1.60;;;15.00;99.90;;;;;;4975005;28;20057;-80
2022/08/22 05:00:05;;;;;;;3.75;2.05;;;15.00;99.90;;;;;;4992168;28;20113;-79
2022/08/22 05:02:55;;;;;;;3.78;1.98;;;15.00;99.90;;;;;;4991501;28;20096;-80
2022/08/22 05:05:43;;;;;;;3.35;1.60;;;15.00;99.90;;;;;;4992561;28;20046;-78
2022/08/22 05:08:33;;;;;;;5.50;2.15;;;15.10;99.90;;;;;;4991909;28;20054;-80
2022/08/22 05:11:22;;;;;;;3.58;1.70;;;15.10;99.90;;;;;;4974604;28;20061;-79
2022/08/22 05:14:17;;;;;;;5.15;2.15;;;15.10;99.90;;;;;;4991821;28;20043;-79
2022/08/22 05:17:07;;;;;;;5.63;2.33;;;15.20;99.90;;;;;;4975028;28;20112;-81
2022/08/22 05:19:57;;;;;;;4.47;2.25;;;15.30;99.90;;;;;;4991725;28;20050;-80
2022/08/22 05:22:49;;;;;;;6.28;2.42;;;15.40;99.90;;;;;;4990303;28;20050;-80
2022/08/22 05:25:39;;;;;;;4.75;1.88;;;15.60;99.90;;;;;;4991544;28;20046;-80
2022/08/22 05:28:32;;;;;;;6.15;1.60;;;15.70;99.90;;;;;;4990775;28;20061;-80
2022/08/22 05:31:25;;;;;;;3.33;1.40;;;15.80;99.90;;;;;;4992078;28;20058;-80
2022/08/22 05:34:20;;;;;;;2.83;1.50;;;16.00;99.90;;;;;;4976959;28;20506;-83
2022/08/22 05:37:47;;;;;;;3.72;1.65;;;16.10;99.90;;;;;;4991605;28;20097;-83
2022/08/22 05:40:33;;;;;;;;;;;16.40;99.90;;;;;;4991874;28;20141;-80
2022/08/22 05:43:21;;;;;;;8.95;3.20;;;16.60;99.90;;;;;;4976152;28;19926;-80
2022/08/22 05:46:41;;;;;;;9.15;3.47;;;16.80;99.90;;;;;;4991731;28;20077;-79
2022/08/22 05:49:31;;;;;;;7.38;2.75;;;17.00;99.90;;;;;;4990165;28;20050;-81
2022/08/22 05:52:20;;;;;;;10.80;3.72;;;17.20;99.90;;;;;;4991497;28;20053;-81
2022/08/22 05:55:25;;;;;;;8.05;3.15;;;17.50;99.90;;;;;;4974096;28;20050;-78
2022/08/22 05:58:25;;;;;;;11.38;2.80;;;17.70;99.90;;;;;;4990873;28;20560;-81
2022/08/22 06:01:26;;;;;;;10.50;3.38;;;18.00;99.90;;;;;;4992689;28;20054;-83
2022/08/22 06:04:15;;;;;;;8.43;3.65;;;18.30;99.90;;;;;;4973876;28;20053;-80
2022/08/22 06:07:33;;;;;;;8.27;2.88;;;18.40;99.90;;;;;;4994615;28;20057;-80
2022/08/22 06:10:51;;;;;;;9.48;2.53;;;18.60;99.90;;;;;;4995457;28;20062;-82
2022/08/22 06:13:44;;;;;;;9.05;3.00;;;18.70;99.90;;;;;;4992196;28;20050;-85
2022/08/22 06:16:52;;;;;;;10.40;3.10;;;18.80;99.90;;;;;;4980037;28;20136;-82
2022/08/22 06:19:45;;;;;;;9.18;3.05;;;18.90;99.90;;;;;;4997708;28;20046;-81
2022/08/22 06:22:42;;;;;;;11.20;3.40;;;19.00;99.90;;;;;;4998409;28;20060;-86
2022/08/22 06:25:34;;;;;;;9.40;2.92;;;19.20;99.90;;;;;;5001011;28;20098;-83
2022/08/22 06:28:24;;;;;;;9.25;2.85;;;19.40;99.90;;;;;;4997495;28;20533;-80
2022/08/22 06:31:21;;;;;;;10.00;2.88;;;19.50;99.90;;;;;;4995170;28;20050;-80
2022/08/22 06:34:36;;;;;;;7.68;2.60;;;19.60;99.90;;;;;;4995406;28;20101;-79
2022/08/22 06:37:30;;;;;;;11.18;2.88;;;19.70;99.90;;;;;;4993680;28;20391;-80
2022/08/22 06:40:17;;;;;;;15.13;2.90;;;19.70;99.90;;;;;;4994237;28;20070;-79
2022/08/22 06:43:05;;;;;;;10.07;2.40;;;19.70;99.90;;;;;;4994227;28;20289;-81
2022/08/22 06:45:52;;;;;;;9.90;3.55;;;19.70;99.90;;;;;;4994899;28;20109;-80
2022/08/22 06:48:40;;;;;;;11.70;2.80;;;19.70;99.90;;;;;;4994155;28;20050;-80
2022/08/22 06:51:28;;;;;;;9.57;3.13;;;19.70;99.90;;;;;;4977125;28;20046;-84
2022/08/22 06:54:20;;;;;;;9.55;2.78;;;19.70;99.90;;;;;;4996003;28;20084;-83
2022/08/22 06:57:25;;;;;;;9.18;2.53;;;19.60;99.90;;;;;;4993848;28;20042;-81
2022/08/22 07:00:15;;;;;;;9.40;3.30;;;19.70;99.90;;;;;;4994446;28;20133;-81
2022/08/22 07:03:16;;;;;;;15.60;3.92;;;19.70;99.90;;;;;;4993259;28;20050;-84
2022/08/22 07:06:04;;;;;;;10.18;2.65;;;19.60;99.90;;;;;;4976819;28;20050;-82
2022/08/22 07:08:54;;;;;;;9.18;2.78;;;19.60;99.90;;;;;;4994487;28;20053;-82
2022/08/22 07:11:42;;;;;;;12.23;3.25;;;19.50;99.90;;;;;;4994951;28;20110;-84
2022/08/22 07:14:32;;;;;;;15.40;3.08;;;19.50;99.90;;;;;;4977993;28;20517;-87
2022/08/22 07:17:23;;;;;;;11.55;3.60;;;19.50;99.90;;;;;;4977106;28;20153;-85
2022/08/22 07:20:23;;;;;;;14.43;3.50;;;19.50;99.90;;;;;;4996832;28;20054;-86
2022/08/22 07:23:13;;;;;;;11.55;3.20;;;19.40;99.90;;;;;;4966812;28;20057;-85
2022/08/22 07:26:15;;;;;;;9.70;2.90;;;19.40;99.90;;;;;;4995720;28;20046;-85
2022/08/22 07:29:27;;;;;;;17.85;2.88;;;19.40;99.90;;;;;;4978930;28;20046;-84
2022/08/22 07:32:13;;;;;;;13.13;3.05;;;19.40;99.90;;;;;;4994351;28;20135;-86
2022/08/22 07:35:14;;;;;;;14.35;3.03;;;19.40;99.90;;;;;;4994626;28;20052;-87
2022/08/22 07:38:12;;;;;;;11.93;3.42;;;19.40;99.90;;;;;;4969171;28;20053;-85
2022/08/22 07:41:21;;;;;;;12.77;2.83;;;19.40;99.90;;;;;;4974531;28;20054;-84
2022/08/22 07:44:12;;;;;;;15.70;3.42;;;19.50;99.90;;;;;;4974466;28;20047;-83
2022/08/22 07:47:07;;;;;;;11.63;2.67;;;19.60;99.90;;;;;;4962563;28;20054;-87
2022/08/22 07:50:02;;;;;;;9.90;3.13;;;19.70;99.90;;;;;;4975564;28;20043;-84
2022/08/22 07:52:51;;;;;;;12.90;3.67;;;19.90;99.90;;;;;;4959908;28;20446;-84
2022/08/22 07:55:38;;;;;;;11.30;3.30;;;20.10;99.90;;;;;;4975321;28;20058;-83
2022/08/22 07:58:28;;;;;;;16.30;4.32;;;20.40;99.90;;;;;;4974043;28;20050;-80
2022/08/22 08:01:19;;;;;;;10.50;3.25;;;20.70;99.90;;;;;;4955608;28;20054;-80
2022/08/22 08:04:15;;;;;;;8.50;2.75;;;20.90;99.90;;;;;;4956563;28;20467;-81
2022/08/22 08:07:07;;;;;;;8.63;2.90;;;20.90;99.90;;;;;;4958697;28;20043;-81
2022/08/22 08:09:58;;;;;;;10.55;2.92;;;21.00;99.90;;;;;;4955705;28;20054;-80
2022/08/22 08:12:49;;;;;;;11.40;2.83;;;21.10;99.90;;;;;;4973042;28;20128;-82
2022/08/22 08:15:44;;;;;;;9.48;2.72;;;21.20;99.90;;;;;;4974452;28;20145;-82
2022/08/22 08:18:34;;;;;;;11.45;3.00;;;21.60;99.90;;;;;;4974434;28;20051;-81
2022/08/22 08:21:34;;;;;;;12.95;2.90;;;21.90;99.90;;;;;;4973962;28;20129;-83
2022/08/22 08:24:39;;;;;;;10.23;2.63;;;22.20;99.90;;;;;;4973606;28;20054;-85
2022/08/22 08:30:53;;;;;;;12.10;2.92;;;22.60;99.90;;;;;;4956239;28;20401;-82
2022/08/22 08:33:46;;;;;;;11.32;4.03;;;23.20;99.90;;;;;;4973699;28;20094;-77
2022/08/22 08:36:44;;;;;;;12.48;2.67;;;23.20;99.90;;;;;;4973502;28;20047;-82
2022/08/22 08:39:49;;;;;;;11.82;2.40;;;23.10;99.90;;;;;;4956277;28;20089;-81
2022/08/22 08:45:59;;;;;;;11.65;2.30;;;23.10;99.90;;;;;;4955508;28;20054;-83
2022/08/22 08:49:01;;;;;;;7.68;1.85;;;23.00;99.90;;;;;;4972983;28;20050;-82
2022/08/22 08:51:51;;;;;;;7.40;2.25;;;22.90;99.90;;;;;;4973139;28;20059;-82
2022/08/22 08:55:13;;;;;;;10.07;2.05;;;22.90;99.90;;;;;;4972743;28;20403;-84
2022/08/22 08:58:10;;;;;;;6.75;1.77;;;22.90;99.90;;;;;;4972171;28;20051;-83
2022/08/22 09:01:15;;;;;;;13.50;2.55;;;22.90;99.90;;;;;;4955682;28;20491;-86
2022/08/22 09:04:10;;;;;;;9.38;2.03;;;23.20;99.90;;;;;;4973144;28;20050;-84
2022/08/22 09:07:15;;;;;;;8.90;2.70;;;23.50;99.90;;;;;;4972951;28;20522;-83
2022/08/22 09:10:21;;;;;;;17.67;3.72;;;23.40;99.50;;;;;;4973914;28;20051;-76
2022/08/22 09:13:31;;;;;;;10.20;2.45;;;23.50;99.90;;;;;;4972206;28;20458;-80
2022/08/22 09:16:45;;;;;;;10.20;2.95;;;23.60;99.60;;;;;;4973050;28;20100;-79
2022/08/22 09:19:31;;;;;;;14.45;2.47;;;23.40;98.90;;;;;;4972835;28;20055;-80
2022/08/22 09:22:32;;;;;;;9.00;3.10;;;23.40;99.10;;;;;;4972339;28;20053;-80
2022/08/22 09:25:48;;;;;;;7.63;1.92;;;23.40;98.70;;;;;;4972655;28;20626;-81
2022/08/22 09:28:52;;;;;;;9.10;2.70;;;23.50;98.90;;;;;;4955042;28;20058;-82
2022/08/22 09:31:51;;;;;;;11.95;2.65;;;23.40;98.70;;;;;;4972261;28;20038;-82
2022/08/22 09:34:46;;;;;;;6.85;2.05;;;23.30;98.90;;;;;;4971850;28;20050;-79
2022/08/22 09:37:35;;;;;;;;;;;23.40;98.80;;;;;;4955363;28;20051;-79
2022/08/22 09:40:50;;;;;;;6.43;2.65;;;23.60;98.40;;;;;;4974014;28;20293;-78
2022/08/22 09:43:44;;;;;;;;;;;24.00;98.40;;;;;;4977759;28;20109;-79
2022/08/22 09:46:49;;;;;;;8.05;2.22;;;24.40;98.50;;;;;;4975474;28;19990;-79
2022/08/22 09:50:05;;;;;;;10.15;3.03;;;24.70;96.50;;;;;;4975619;28;20667;-78
2022/08/22 09:52:54;;;;;;;10.65;2.60;;;25.10;96.80;;;;;;4977501;28;20082;-78
2022/08/22 09:56:01;;;;;;;7.90;2.22;;;25.30;96.10;;;;;;4975624;28;20058;-81
2022/08/22 09:59:08;;;;;;;17.05;3.25;;;25.60;95.70;;;;;;4976433;28;20069;-80
2022/08/22 10:02:00;;;;;;;6.50;2.30;;;25.90;95.40;;;;;;4978314;28;20074;-79
2022/08/22 10:05:13;;;;;;;11.15;1.98;;;26.10;94.70;;;;;;4959499;28;20047;-79
2022/08/22 10:08:41;;;;;;;7.85;2.25;;;26.40;93.50;;;;;;4975625;28;20514;-78
2022/08/22 10:11:51;;;;;;;10.07;2.08;;;26.80;93.00;;;;;;4976888;28;20054;-80
2022/08/22 10:15:07;;;;;;;9.60;1.80;;;27.00;93.70;;;;;;4976448;28;20050;-79
2022/08/22 10:18:11;;;;;;;;;;;27.20;93.40;;;;;;4976477;28;20414;-78
2022/08/22 10:21:37;;;;;;;6.72;1.75;;;27.40;92.70;;;;;;4976020;28;19922;-82
2022/08/22 10:24:41;;;;;;;;;;;27.60;92.30;;;;;;4941939;28;20146;-77
2022/08/22 10:27:49;;;;;;;14.00;2.58;;;27.70;91.40;;;;;;4976077;28;19922;-76
2022/08/22 10:30:53;;;;;;;5.10;1.77;;;28.00;90.80;;;;;;4957350;28;20042;-77
2022/08/22 10:34:04;;;;;;;6.20;1.80;;;28.20;90.70;;;;;;4957245;28;20059;-75
2022/08/22 10:37:14;;;;;;;10.55;2.20;;;28.40;88.70;;;;;;4974776;28;20058;-82
2022/08/22 10:40:27;;;;;;;7.07;1.98;;;28.60;87.80;;;;;;4974204;28;20392;-78
2022/08/22 10:43:28;;;;;;;6.25;1.83;;;28.80;88.90;;;;;;4973592;28;20051;-79
2022/08/22 10:46:30;;;;;;;9.63;2.83;;;29.10;86.60;;;;;;4975360;28;20047;-77
2022/08/22 10:49:38;;;;;;;6.65;1.58;;;29.50;88.70;;;;;;4974544;28;20046;-77
2022/08/22 10:52:34;;;;;;;8.57;2.15;;;29.90;85.50;;;;;;4974879;28;20138;-78
2022/08/22 10:55:25;;;;;;;5.43;1.55;;;30.20;84.40;;;;;;4975571;28;20134;-81
2022/08/22 10:58:18;;;;;;;7.03;1.60;;;30.20;81.90;;;;;;4976378;28;20197;-80
2022/08/22 11:01:06;;;;;;;6.15;1.50;;;30.50;81.20;;;;;;4961794;28;20054;-78
2022/08/22 11:04:22;;;;;;;7.63;2.22;;;30.70;80.90;;;;;;4964247;28;20113;-79
2022/08/22 11:07:27;;;;;;;8.15;2.08;;;31.20;79.10;;;;;;4962715;28;20055;-78
2022/08/22 11:10:35;;;;;;;6.00;1.63;;;31.40;75.30;;;;;;4967595;28;20054;-81
2022/08/22 11:13:32;;;;;;;11.77;2.05;;;31.10;74.50;;;;;;4963328;28;20055;-81
2022/08/22 11:16:39;;;;;;;7.10;1.70;;;31.20;73.90;;;;;;4977895;28;20138;-76
2022/08/22 11:19:41;;;;;;;10.05;1.80;;;31.50;75.50;;;;;;4961329;28;20105;-84
2022/08/22 11:22:43;;;;;;;7.53;1.92;;;31.50;72.40;;;;;;4966113;28;20135;-80
2022/08/22 11:25:40;;;;;;;8.60;2.05;;;31.90;73.50;;;;;;4990052;28;20059;-81
2022/08/22 11:28:36;;;;;;;12.15;2.00;;;31.60;74.10;;;;;;4974196;28;20051;-80
2022/08/22 11:31:34;;;;;;;6.80;1.85;;;31.90;75.10;;;;;;4975280;28;20042;-82
2022/08/22 11:34:38;;;;;;;14.82;2.88;;;31.80;71.50;;;;;;4975086;28;20138;-81
2022/08/22 11:37:57;;;;;;;8.30;2.15;;;31.60;73.50;;;;;;4973426;28;20147;-80
2022/08/22 11:40:43;;;;;;;10.02;3.20;;;30.90;74.90;;;;;;4935814;28;20097;-80
2022/08/22 11:43:50;;;;;;;9.23;2.28;;;30.50;75.90;;;;;;4992946;28;20046;-79
2022/08/22 11:46:46;;;;;;;10.32;2.60;;;30.10;76.40;;;;;;4975426;28;20137;-82
2022/08/22 11:49:44;;;;;;;7.53;2.05;;;29.70;75.80;;;;;;4992611;28;20487;-83
2022/08/22 11:52:51;;;;;;;7.65;2.28;;;29.10;77.10;;;;;;4992617;28;20053;-82
2022/08/22 11:55:58;;;;;;;7.55;1.95;;;28.80;78.80;;;;;;4991639;28;20101;-82
2022/08/22 11:59:01;;;;;;;10.02;2.47;;;29.00;82.10;;;;;;4974407;28;20046;-80
2022/08/22 12:01:58;;;;;;;14.23;2.13;;;29.60;81.40;;;;;;4973816;28;20050;-81
2022/08/22 12:04:54;;;;;;;8.73;2.30;;;29.40;80.90;;;;;;4992610;28;20129;-80
2022/08/22 12:07:52;;;;;;;7.90;2.55;;;29.10;81.00;;;;;;4991845;28;20783;-79
2022/08/22 12:11:04;;;;;;;15.07;2.65;;;29.00;81.70;;;;;;4992235;28;20039;-79
2022/08/22 12:13:50;;;;;;;14.63;3.58;;;29.10;82.30;;;;;;4989851;28;20046;-79
2022/08/22 12:16:55;;;;;;;7.65;2.40;;;28.80;81.90;;;;;;4975037;28;20097;-79
2022/08/22 12:19:43;;;;;;;10.20;2.35;;;28.40;82.80;;;;;;4973739;28;20524;-81
2022/08/22 12:22:36;;;;;;;8.20;2.08;;;28.60;84.50;;;;;;4974753;28;20136;-78
2022/08/22 12:25:43;;;;;;;8.90;2.25;;;29.10;84.70;;;;;;4991576;28;20058;-78
2022/08/22 12:28:48;;;;;;;10.95;2.42;;;29.10;83.70;;;;;;4990920;28;20065;-81
2022/08/22 12:31:34;;;;;;;11.73;2.28;;;28.20;82.90;;;;;;4989362;28;20102;-82
2022/08/22 12:34:47;;;;;;;7.50;2.15;;;27.90;84.70;;;;;;4991296;28;20047;-83
2022/08/22 12:38:15;;;;;;;7.75;2.38;;;28.00;87.50;;;;;;4990173;28;20096;-82
2022/08/22 12:45:13;;;;;;;9.73;2.30;;;29.40;82.60;;;;;;4972973;28;20516;-81
2022/08/22 12:48:44;;;;;;;7.65;2.10;;;28.90;83.90;;;;;;4955544;28;20054;-85
2022/08/22 12:51:36;;;;;;;15.15;3.63;;;28.70;84.20;;;;;;4972064;28;20054;-83
2022/08/22 12:54:33;;;;;;;7.45;1.95;;;28.30;85.70;;;;;;4973083;28;20057;-81
2022/08/22 12:57:32;;;;;;;9.35;2.20;;;27.90;86.10;;;;;;4972623;28;20473;-83
2022/08/22 13:00:31;;;;;;;12.15;2.72;;;27.70;87.00;;;;;;4954697;28;20058;-84
2022/08/22 13:03:26;;;;;;;8.85;2.30;;;27.30;88.90;;;;;;4955545;28;20082;-80
2022/08/22 13:06:47;;;;;;;8.77;2.10;;;27.50;89.10;;;;;;4972267;28;20117;-81
2022/08/22 13:09:38;;;;;;;7.35;2.22;;;28.50;88.10;;;;;;4931548;28;20117;-82
2022/08/22 13:12:42;;;;;;;6.13;2.08;;;28.50;85.40;;;;;;4973233;28;20051;-83
2022/08/22 13:15:34;;;;;;;6.93;2.20;;;28.10;85.50;;;;;;4977000;28;20063;-85
2022/08/22 13:18:25;;;;;;;5.97;2.17;;;29.10;85.00;;;;;;4974990;28;20568;-82
2022/08/22 13:21:15;;;;;;;9.07;2.05;;;29.40;83.90;;;;;;4972034;28;20495;-83
2022/08/22 13:24:11;;;;;;;9.55;1.98;;;30.90;83.20;;;;;;4975000;28;20050;-85
2022/08/22 13:27:04;;;;;;;6.68;1.58;;;32.00;81.60;;;;;;4974782;28;20054;-89
2022/08/22 13:29:53;;;;;;;6.25;1.70;;;32.30;77.80;;;;;;4972647;28;20054;-87
2022/08/22 13:32:52;;;;;;;4.88;1.63;;;31.50;77.70;;;;;;4954810;28;20053;-81
2022/08/22 13:35:41;;;;;;;6.93;1.90;;;31.50;78.10;;;;;;4954198;28;20057;-85
2022/08/22 13:38:40;;;;;;;8.98;2.25;;;30.40;78.80;;;;;;4967580;28;20380;-81
2022/08/22 13:41:36;;;;;;;15.18;2.70;;;29.50;80.30;;;;;;4935833;29;20086;-82
2022/08/22 13:44:27;;;;;;;9.77;2.55;;;29.70;84.30;;;;;;4953525;28;20066;-82
2022/08/22 13:47:20;;;;;;;10.00;2.28;;;31.20;81.90;;;;;;4952977;29;20051;-82
2022/08/22 13:50:18;;;;;;;13.00;2.05;;;32.40;78.60;;;;;;4953780;28;20055;-89
2022/08/22 13:53:13;;;;;;;10.80;2.67;;;33.00;75.90;;;;;;4936530;29;20055;-81
2022/08/22 13:56:08;;;;;;;8.85;2.05;;;33.50;73.70;;;;;;4936723;29;20682;-82
2022/08/22 13:59:02;;;;;;;12.55;2.42;;;34.50;71.20;;;;;;4924056;29;20419;-84
2022/08/22 14:02:04;;;;;;;8.68;2.08;;;35.20;71.50;;;;;;4936884;29;20058;-87
2022/08/22 14:04:52;;;;;;;9.15;2.28;;;35.90;69.00;;;;;;4952860;29;20063;-83
2022/08/22 14:07:44;;;;;;;14.82;2.60;;;36.00;67.20;;;;;;4954194;29;20555;-86
2022/08/22 14:10:34;;;;;;;10.07;1.80;;;36.10;67.20;;;;;;4953807;29;20055;-85
2022/08/22 14:13:26;;;;;;;10.40;2.00;;;36.20;65.40;;;;;;4936302;29;20062;-85
2022/08/22 14:16:24;;;;;;;8.45;2.30;;;36.60;64.60;;;;;;4936605;29;20454;-84
2022/08/22 14:19:21;;;;;;;8.80;1.65;;;36.60;63.20;;;;;;4936549;29;20063;-83
2022/08/22 14:22:10;;;;;;;8.50;2.10;;;36.60;62.10;;;;;;4952764;29;20043;-84
2022/08/22 14:25:00;;;;;;;8.32;2.20;;;36.80;62.50;;;;;;4936519;28;20094;-85
2022/08/22 14:27:54;;;;;;;7.95;1.90;;;37.20;61.80;;;;;;4941181;28;20051;-81
2022/08/22 14:31:01;;;;;;;8.40;2.55;;;37.10;61.20;;;;;;4956947;29;20810;-81
2022/08/22 14:34:09;;;;;;;9.30;2.10;;;37.80;61.60;;;;;;4956699;28;20055;-83
2022/08/22 14:37:06;;;;;;;9.20;1.90;;;37.70;59.60;;;;;;4938783;29;20043;-87
2022/08/22 14:40:01;;;;;;;7.97;2.15;;;36.70;59.80;;;;;;4939068;28;20150;-85
2022/08/22 14:43:03;;;;;;;6.97;1.73;;;35.90;60.80;;;;;;4955731;29;20530;-82
2022/08/22 14:46:06;;;;;;;8.77;2.22;;;34.30;62.50;;;;;;4955605;28;20081;-82
2022/08/22 14:48:58;;;;;;;10.05;2.35;;;33.00;64.40;;;;;;4939385;29;20051;-85
2022/08/22 14:51:51;;;;;;;9.30;2.38;;;31.90;66.70;;;;;;4938777;29;20134;-84
2022/08/22 14:54:38;;;;;;;9.20;2.25;;;32.10;68.20;;;;;;4938348;29;20086;-86
2022/08/22 14:57:24;;;;;;;12.60;2.38;;;32.90;68.20;;;;;;4940322;29;20550;-89
2022/08/22 15:00:12;;;;;;;4.97;2.00;;;34.00;66.60;;;;;;4926602;29;20058;-83
2022/08/22 15:03:22;;;;;;;9.85;2.03;;;34.90;65.60;;;;;;4957680;29;20071;-85
2022/08/22 15:06:28;;;;;;;8.18;2.00;;;35.50;64.90;;;;;;4944969;28;20055;-87
2022/08/22 15:09:35;;;;;;;11.57;2.65;;;35.80;63.80;;;;;;4960827;28;20131;-81
2022/08/22 15:12:37;;;;;;;6.35;2.10;;;36.30;63.50;;;;;;4978542;28;20042;-82
2022/08/22 15:15:43;;;;;;;14.45;3.05;;;35.90;62.10;;;;;;4968810;28;20134;-89
2022/08/22 15:18:31;;;;;;;7.70;2.38;;;34.60;63.70;;;;;;4959807;28;20042;-88
2022/08/22 15:21:24;;;;;;;10.20;2.50;;;33.90;65.30;;;;;;4977494;28;20387;-85
2022/08/22 15:24:13;;;;;;;8.40;2.30;;;33.20;64.70;;;;;;4980641;28;20057;-90
2022/08/22 15:26:59;;;;;;;9.15;2.17;;;32.60;66.30;;;;;;4977548;28;20047;-83
2022/08/22 15:29:52;;;;;;;7.85;1.95;;;32.70;67.50;;;;;;4977618;28;20047;-82
2022/08/22 15:32:41;;;;;;;11.38;2.30;;;33.20;66.20;;;;;;4975140;28;20047;-81
2022/08/22 15:35:30;;;;;;;9.30;2.08;;;33.60;65.70;;;;;;4976115;28;20109;-83
2022/08/22 15:38:37;;;;;;;9.80;2.15;;;34.10;65.60;;;;;;4975472;28;20046;-89
2022/08/22 15:41:30;;;;;;;10.65;2.28;;;34.70;64.30;;;;;;4994214;28;20047;-81
2022/08/22 15:44:19;;;;;;;10.55;2.45;;;35.70;63.70;;;;;;4977488;28;20046;-83
2022/08/22 15:47:08;;;;;;;11.50;2.85;;;36.20;62.20;;;;;;4979311;28;20068;-81